Back to top

Laramie, WY weather

Laramie Regional Airport, Laramie, WY: 7/22/2019 13:53
Visibility10 statute mileslandscape with some clouds producing lightning and rain
View 7-Day Forecast
Area Summary
Sky/CloudsBroken at 11000ft
Weather [last 24 hours]Thunderstorm in vicinity [rain began 16:35 ended 16:45; rain began 19:28 ended 19:38 ]
Pressure30.44 in.Hg (1031 hPa)
Dew Point52 °F (11.1 °C)
Relative Humidity56.6 %
Last 24-Hour Precip.Trace
Reading TimePrecipitation
6-hr ending 7/21@23:53Trace
6-hr ending 7/21@17:53Trace
Temperature68 °F (20 °C)red thermometer
Reading TimeMinimum to Maximum Temperature
6-hr ending 7/22@11:5355.9 °F to 73 °F (13.3 °C to 22.8 °C)
6-hr ending 7/22@05:5355.9 °F to 59 °F (13.3 °C to 15 °C)
6-hr ending 7/21@23:5357.9 °F to 75 °F (14.4 °C to 23.9 °C)
6-hr ending 7/21@17:5372 °F to 78.1 °F (22.2 °C to 25.6 °C)
24-hr ending 7/22@00:5351.1 °F to 78.1 °F (10.6 °C to 25.6 °C)
Wind19.6 MPH (17 KT) green arrow pointing 180 degrees
Wind FromSouth (180 Degrees)
Twilight Begins05:15Sunshine Yesterday
Sunrise05:47N/A
Sunset20:30
Twilight Ends21:02
RemarksLTG, DSNT, SW
METARKLAR 221953Z AUTO 18017KT 10SM VCTS BKN110 20/11 A3044 RMK AO2 LTG DSNT SW SLP206 T02000111
Tags: